Time;durP1;ratioP1;P1;durP2;ratioP2;P2;SDS_P1;SDS_P2;PMS_P1;PMS_P2;Temp;Humidity;BMP_temperature;BMP_pressure;BME280_temperature;BME280_humidity;BME280_pressure;Samples;Min_cycle;Max_cycle;Signal;HPM_P1;HPM_P2
2021/08/01 00:00:21;;;;;;;9.13;3.10;;;;;;;16.62;54.57;99864.30;1774877;80;21459;-75
2021/08/01 00:02:49;;;;;;;6.65;2.45;;;;;;;16.62;54.66;99864.30;1764629;81;21053;-75
2021/08/01 00:05:15;;;;;;;3.77;2.00;;;;;;;16.61;54.72;99868.03;1772089;80;21479;-75
2021/08/01 00:07:41;;;;;;;4.72;2.70;;;;;;;16.59;54.82;99863.41;1779773;80;21699;-74
2021/08/01 00:10:09;;;;;;;8.10;4.67;;;;;;;16.56;54.87;99869.23;1778667;80;21026;-74
2021/08/01 00:12:35;;;;;;;11.08;3.77;;;;;;;16.52;54.97;99877.42;1784982;80;21002;-74
2021/08/01 00:15:01;;;;;;;4.97;2.83;;;;;;;16.48;55.05;99888.63;1790288;80;20959;-74
2021/08/01 00:17:27;;;;;;;7.35;2.60;;;;;;;16.45;55.13;99888.25;1785850;80;21034;-74
2021/08/01 00:19:53;;;;;;;4.33;1.95;;;;;;;16.41;55.21;99882.48;1784315;80;21034;-74
2021/08/01 00:22:20;;;;;;;4.17;2.10;;;;;;;16.39;55.28;99884.58;1784230;80;21086;-74
2021/08/01 00:24:46;;;;;;;5.10;2.35;;;;;;;16.37;55.36;99882.62;1790166;80;21013;-74
2021/08/01 00:27:12;;;;;;;4.78;1.98;;;;;;;16.35;55.41;99885.23;1788656;80;21011;-74
2021/08/01 00:29:38;;;;;;;4.20;2.42;;;;;;;16.30;55.50;99877.81;1787131;78;21333;-74
2021/08/01 00:32:06;;;;;;;4.25;2.33;;;;;;;16.26;55.56;99879.28;1784717;80;21141;-74
2021/08/01 00:34:34;;;;;;;10.93;2.30;;;;;;;16.22;55.62;99887.49;1784433;80;21488;-75
2021/08/01 00:37:00;;;;;;;3.55;1.95;;;;;;;16.17;55.73;99892.72;1785604;80;21039;-75
2021/08/01 00:39:28;;;;;;;4.72;2.50;;;;;;;16.14;55.78;99889.13;1784668;80;21052;-75
2021/08/01 00:41:54;;;;;;;5.40;2.87;;;;;;;16.11;55.89;99903.02;1784645;80;21038;-75
2021/08/01 00:44:20;;;;;;;6.45;2.40;;;;;;;16.08;55.96;99900.73;1785674;80;21924;-75
2021/08/01 00:46:46;;;;;;;7.70;2.37;;;;;;;16.05;56.04;99896.31;1789971;80;20975;-74
2021/08/01 00:49:12;;;;;;;6.50;2.17;;;;;;;16.03;56.10;99896.55;1785766;80;21031;-74
2021/08/01 00:51:38;;;;;;;9.53;2.10;;;;;;;16.04;56.19;99890.66;1784287;80;21074;-75
2021/08/01 00:54:04;;;;;;;4.20;2.15;;;;;;;16.02;56.26;99898.92;1784610;80;21043;-75
2021/08/01 00:56:30;;;;;;;3.65;2.27;;;;;;;15.98;56.33;99893.67;1785453;80;21099;-75
2021/08/01 00:58:56;;;;;;;5.53;2.25;;;;;;;15.96;56.39;99901.14;1788816;80;21066;-74
2021/08/01 01:01:31;;;;;;;8.38;2.75;;;;;;;15.94;56.48;99895.14;1784433;80;21034;-75
2021/08/01 01:04:25;;;;;;;3.67;2.58;;;;;;;15.89;56.54;99896.33;1784615;80;20995;-75
2021/08/01 01:07:03;;;;;;;4.67;2.25;;;;;;;15.84;56.64;99898.83;1781206;80;20964;-75
2021/08/01 01:09:43;;;;;;;6.97;2.27;;;;;;;15.78;56.75;99895.67;1782713;80;21141;-75
2021/08/01 01:12:13;;;;;;;6.72;2.17;;;;;;;15.73;56.85;99894.13;1763566;80;21002;-75
2021/08/01 01:14:47;;;;;;;3.62;2.20;;;;;;;15.67;56.94;99890.97;1778852;80;21074;-75
2021/08/01 01:17:15;;;;;;;5.92;2.42;;;;;;;15.65;57.04;99898.44;1778876;80;21464;-75
2021/08/01 01:19:56;;;;;;;6.87;1.85;;;;;;;15.61;57.13;99895.87;1778529;80;21020;-75
2021/08/01 01:22:36;;;;;;;7.75;1.90;;;;;;;15.57;57.22;99887.92;1755857;80;22064;-75
2021/08/01 01:25:05;;;;;;;7.62;2.90;;;;;;;15.53;57.32;99884.84;1774076;80;21487;-75
2021/08/01 01:27:36;;;;;;;10.30;3.62;;;;;;;15.49;57.42;99883.10;1776414;80;21503;-75
2021/08/01 01:30:04;;;;;;;7.60;3.12;;;;;;;15.45;57.50;99879.16;1778266;79;21002;-75
2021/08/01 01:32:45;;;;;;;8.05;2.30;;;;;;;15.43;57.60;99869.67;1778728;80;21047;-75
2021/08/01 01:35:14;;;;;;;4.87;2.60;;;;;;;15.39;57.69;99862.55;1777735;80;21076;-75
2021/08/01 01:37:40;;;;;;;7.20;2.80;;;;;;;15.35;57.80;99865.36;1776185;80;21007;-75
2021/08/01 01:40:07;;;;;;;4.97;2.55;;;;;;;15.31;57.92;99856.08;1776369;80;21004;-75
2021/08/01 01:42:33;;;;;;;8.63;3.12;;;;;;;15.29;58.01;99864.87;1772259;80;20987;-75
2021/08/01 01:44:59;;;;;;;7.37;3.02;;;;;;;15.24;58.14;99864.68;1771226;80;20991;-75
2021/08/01 01:47:25;;;;;;;10.30;3.25;;;;;;;15.19;58.25;99860.48;1778576;80;21156;-74
2021/08/01 01:49:55;;;;;;;7.45;3.00;;;;;;;15.13;58.40;99858.63;1775406;80;21046;-75
2021/08/01 01:52:22;;;;;;;8.48;3.10;;;;;;;15.07;58.56;99860.82;1782145;79;21035;-75
2021/08/01 01:54:48;;;;;;;6.37;3.58;;;;;;;15.03;58.77;99865.48;1806250;79;21594;-75
2021/08/01 01:57:14;;;;;;;9.20;3.90;;;;;;;15.00;58.81;99862.19;1804158;79;20976;-75
2021/08/01 01:59:40;;;;;;;6.80;3.58;;;;;;;14.97;58.91;99864.47;1781274;79;21760;-74
2021/08/01 02:02:07;;;;;;;7.95;4.10;;;;;;;14.94;59.03;99864.91;1777153;80;20984;-75
2021/08/01 02:04:34;;;;;;;11.15;4.28;;;;;;;14.91;59.11;99869.36;1778266;80;20987;-75
2021/08/01 02:07:00;;;;;;;8.93;3.75;;;;;;;14.87;59.20;99869.47;1778559;80;20991;-75
2021/08/01 02:09:46;;;;;;;10.23;3.60;;;;;;;14.84;59.28;99873.92;1778698;80;21601;-74
2021/08/01 02:12:28;;;;;;;4.47;2.60;;;;;;;14.83;59.38;99878.97;1745757;80;21119;-75
2021/08/01 02:15:06;;;;;;;6.12;2.20;;;;;;;14.81;59.45;99877.83;1776863;80;21329;-75
2021/08/01 02:17:47;;;;;;;5.17;2.72;;;;;;;14.82;59.54;99875.97;1747208;80;20995;-75
2021/08/01 02:20:16;;;;;;;5.85;2.52;;;;;;;14.83;59.61;99876.28;1778654;80;21004;-74
2021/08/01 02:22:42;;;;;;;6.60;2.67;;;;;;;14.87;59.67;99880.20;1777951;80;21077;-75
2021/08/01 02:25:09;;;;;;;10.25;3.05;;;;;;;14.89;59.73;99864.70;1778741;80;21094;-74
2021/08/01 02:27:35;;;;;;;4.37;2.27;;;;;;;14.89;59.76;99864.70;1778304;80;20995;-74
2021/08/01 02:30:02;;;;;;;6.35;2.37;;;;;;;14.89;59.80;99868.21;1772665;79;21067;-75
2021/08/01 02:32:29;;;;;;;8.50;2.95;;;;;;;14.88;59.85;99865.75;1777040;79;21031;-75
2021/08/01 02:34:55;;;;;;;5.75;2.40;;;;;;;14.87;59.88;99868.12;1778777;80;21535;-74
2021/08/01 02:37:21;;;;;;;6.92;2.83;;;;;;;14.85;59.95;99872.86;1778830;80;21767;-75
2021/08/01 02:39:47;;;;;;;7.42;2.25;;;;;;;14.81;60.00;99871.11;1778449;80;20975;-74
2021/08/01 02:42:13;;;;;;;6.65;3.40;;;;;;;14.81;60.08;99874.34;1773386;80;21012;-74
2021/08/01 02:44:40;;;;;;;5.97;2.70;;;;;;;14.77;60.14;99869.08;1770329;81;21017;-74
2021/08/01 02:47:08;;;;;;;9.15;2.85;;;;;;;14.78;60.22;99876.08;1772620;80;21226;-75
2021/08/01 02:49:38;;;;;;;9.53;3.33;;;;;;;14.77;60.25;99872.59;1778635;80;21452;-74
2021/08/01 02:52:06;;;;;;;4.97;3.25;;;;;;;14.76;60.32;99872.80;1778323;80;21035;-74
2021/08/01 02:54:32;;;;;;;6.45;3.00;;;;;;;14.76;60.39;99883.53;1770353;81;21536;-74
2021/08/01 02:57:03;;;;;;;5.97;2.77;;;;;;;14.74;60.67;99873.53;1775042;80;21503;-75
2021/08/01 02:59:30;;;;;;;4.78;2.92;;;;;;;14.74;60.55;99872.19;1774692;80;21040;-75
2021/08/01 03:01:57;;;;;;;8.93;3.72;;;;;;;14.74;60.63;99873.53;1774769;80;21086;-75
2021/08/01 03:04:24;;;;;;;6.40;3.17;;;;;;;14.74;60.73;99873.53;1745069;81;21535;-74
2021/08/01 03:06:51;;;;;;;10.60;3.92;;;;;;;14.78;60.74;99878.77;1770407;80;20987;-74
2021/08/01 03:09:17;;;;;;;5.92;2.95;;;;;;;14.81;60.79;99878.37;1776802;80;21066;-74
2021/08/01 03:11:43;;;;;;;8.05;2.92;;;;;;;14.84;60.82;99873.92;1778011;80;21058;-75
2021/08/01 03:14:09;;;;;;;9.18;3.50;;;;;;;14.86;60.88;99873.17;1778253;80;21039;-74
2021/08/01 03:16:35;;;;;;;5.85;3.00;;;;;;;14.88;60.91;99871.13;1778544;80;21028;-74
2021/08/01 03:19:01;;;;;;;7.47;2.72;;;;;;;14.90;60.94;99877.09;1780193;80;21068;-75
2021/08/01 03:21:27;;;;;;;22.35;3.72;;;;;;;14.93;60.98;99874.81;1778596;80;21028;-75
2021/08/01 03:23:53;;;;;;;5.03;3.02;;;;;;;14.96;61.01;99885.64;1777059;80;21471;-74
2021/08/01 03:26:19;;;;;;;5.75;3.37;;;;;;;14.96;61.03;99883.78;1776014;80;21815;-75
2021/08/01 03:28:45;;;;;;;4.10;3.17;;;;;;;14.94;61.04;99882.36;1770298;79;20968;-74
2021/08/01 03:31:11;;;;;;;7.55;3.50;;;;;;;14.97;61.07;99888.13;1770462;81;21499;-75
2021/08/01 03:33:37;;;;;;;5.12;3.45;;;;;;;14.99;61.12;99886.05;1770695;81;21007;-75
2021/08/01 03:36:04;;;;;;;9.18;3.22;;;;;;;15.00;61.11;99886.36;1770621;81;20979;-75
2021/08/01 03:38:30;;;;;;;9.68;3.05;;;;;;;15.00;61.13;99885.53;1771073;80;22358;-75
2021/08/01 03:40:56;;;;;;;4.30;2.80;;;;;;;15.02;61.17;99890.19;1778655;80;20964;-75
2021/08/01 03:43:22;;;;;;;4.28;3.05;;;;;;;15.04;61.18;99888.11;1778591;80;21066;-75
2021/08/01 03:45:48;;;;;;;6.40;3.00;;;;;;;15.06;61.22;99890.05;1778728;80;20992;-75
2021/08/01 03:48:14;;;;;;;7.28;3.08;;;;;;;15.09;61.22;99882.11;1776438;80;20999;-75
2021/08/01 03:50:40;;;;;;;7.28;3.08;;;;;;;15.11;61.19;99886.74;1778573;80;21139;-75
2021/08/01 03:53:06;;;;;;;6.58;3.33;;;;;;;15.12;61.25;99889.23;1763157;80;20979;-75
2021/08/01 03:55:32;;;;;;;7.30;3.25;;;;;;;15.12;61.28;99885.20;1770764;80;20972;-75
2021/08/01 03:57:59;;;;;;;3.55;2.52;;;;;;;15.14;61.30;99883.11;1743668;80;21436;-75
2021/08/01 04:00:25;;;;;;;3.72;2.87;;;;;;;15.18;61.31;99885.69;1746444;80;20999;-75
2021/08/01 04:02:51;;;;;;;8.13;2.92;;;;;;;15.24;61.34;99882.66;1776238;80;21139;-75
2021/08/01 04:05:17;;;;;;;5.97;3.85;;;;;;;15.32;61.36;99875.71;1778205;80;21031;-75
2021/08/01 04:07:43;;;;;;;8.33;3.37;;;;;;;15.41;61.36;99865.84;1778718;80;21034;-74
2021/08/01 04:10:10;;;;;;;5.85;3.12;;;;;;;15.51;61.35;99868.64;1778321;80;20979;-74
2021/08/01 04:12:37;;;;;;;9.45;3.60;;;;;;;15.61;61.30;99871.68;1778468;80;21086;-74
2021/08/01 04:15:04;;;;;;;5.85;2.83;;;;;;;15.73;61.31;99879.34;1778676;80;21830;-75
2021/08/01 04:17:33;;;;;;;12.73;3.40;;;;;;;15.92;61.30;99875.72;1778551;80;21078;-74
2021/08/01 04:19:59;;;;;;;12.40;3.15;;;;;;;16.13;61.22;99869.98;1778431;80;21058;-75
2021/08/01 04:22:25;;;;;;;9.73;3.15;;;;;;;16.43;61.19;99866.92;1778338;80;21023;-75
2021/08/01 04:24:52;;;;;;;7.92;3.15;;;;;;;16.88;61.08;99874.83;1778660;80;21055;-75
2021/08/01 04:27:18;;;;;;;6.67;2.87;;;;;;;16.97;60.78;99873.47;1778560;80;21141;-75
2021/08/01 04:29:45;;;;;;;4.22;2.77;;;;;;;16.93;60.63;99873.09;1788556;79;21046;-75
2021/08/01 04:32:11;;;;;;;5.75;2.72;;;;;;;16.93;60.57;99875.78;1784901;79;20991;-75
2021/08/01 04:34:37;;;;;;;5.28;3.20;;;;;;;16.96;60.50;99878.55;1779640;80;21023;-75
2021/08/01 04:37:03;;;;;;;7.33;3.27;;;;;;;17.08;60.45;99874.07;1776343;80;21032;-75
2021/08/01 04:39:29;;;;;;;5.10;3.00;;;;;;;17.17;60.34;99876.75;1776810;79;21231;-75
2021/08/01 04:41:55;;;;;;;8.38;3.42;;;;;;;17.55;60.40;99879.20;1781476;80;21019;-75
2021/08/01 04:44:21;;;;;;;6.20;3.27;;;;;;;17.90;59.93;99879.36;1797629;79;21043;-75
2021/08/01 04:46:47;;;;;;;7.30;2.98;;;;;;;18.03;59.62;99884.55;1792483;79;20976;-75
2021/08/01 04:49:13;;;;;;;6.25;3.05;;;;;;;18.18;59.49;99884.95;1789385;79;21018;-75
2021/08/01 04:51:39;;;;;;;8.43;2.90;;;;;;;18.46;59.18;99879.70;1781123;80;21487;-75
2021/08/01 04:54:05;;;;;;;5.67;3.30;;;;;;;18.56;58.86;99876.97;1778275;80;20979;-75
2021/08/01 04:56:31;;;;;;;5.37;3.10;;;;;;;18.52;58.63;99875.79;1785912;80;21085;-75
2021/08/01 04:58:57;;;;;;;7.95;2.75;;;;;;;18.45;58.56;99880.75;1787152;80;20998;-75
2021/08/01 05:01:23;;;;;;;14.75;4.17;;;;;;;18.40;58.46;99886.02;1789818;79;20980;-75
2021/08/01 05:03:49;;;;;;;5.97;2.98;;;;;;;18.32;58.38;99883.68;1805911;79;21113;-76
2021/08/01 05:06:15;;;;;;;6.10;3.37;;;;;;;18.29;58.32;99884.15;1803964;79;21547;-75
2021/08/01 05:08:41;;;;;;;10.93;3.00;;;;;;;18.27;58.28;99879.49;1806334;79;20979;-76
2021/08/01 05:11:07;;;;;;;4.00;2.50;;;;;;;18.31;58.19;99882.03;1799007;79;20988;-75
2021/08/01 05:13:33;;;;;;;7.92;2.92;;;;;;;18.35;58.12;99879.16;1789845;80;21096;-75
2021/08/01 05:15:59;;;;;;;6.33;3.02;;;;;;;18.45;58.13;99886.67;1788262;80;21185;-75
2021/08/01 05:18:25;;;;;;;5.55;3.27;;;;;;;18.62;58.06;99889.00;1784522;80;20983;-75
2021/08/01 05:20:51;;;;;;;7.55;3.25;;;;;;;18.73;58.02;99888.19;1784575;80;21046;-75
2021/08/01 05:23:17;;;;;;;7.33;3.58;;;;;;;18.96;57.90;99884.66;1786741;80;20995;-75
2021/08/01 05:25:43;;;;;;;6.37;2.90;;;;;;;19.22;57.72;99878.72;1789362;80;21486;-76
2021/08/01 05:28:10;;;;;;;3.95;2.55;;;;;;;19.53;57.60;99883.45;1785465;80;21094;-76
2021/08/01 05:30:36;;;;;;;4.33;3.40;;;;;;;19.79;57.38;99873.38;1785173;78;20987;-76
2021/08/01 05:33:09;;;;;;;8.13;2.42;;;;;;;20.11;57.12;99878.57;1784246;80;20983;-76
2021/08/01 05:35:37;;;;;;;4.75;2.60;;;;;;;20.45;56.84;99871.30;1784400;80;21007;-76
2021/08/01 05:38:03;;;;;;;6.20;2.60;;;;;;;20.62;56.54;99867.23;1784519;80;20979;-76
2021/08/01 05:40:29;;;;;;;7.00;2.45;;;;;;;20.60;56.17;99859.88;1784597;80;21011;-76
2021/08/01 05:42:56;;;;;;;5.60;3.30;;;;;;;20.51;55.81;99857.31;1784276;80;20975;-76
2021/08/01 05:45:22;;;;;;;3.85;2.80;;;;;;;20.37;55.61;99857.63;1789254;80;21042;-76
2021/08/01 05:47:48;;;;;;;4.60;2.40;;;;;;;20.37;55.37;99855.48;1784811;80;21054;-76
2021/08/01 05:50:14;;;;;;;3.08;1.92;;;;;;;20.23;55.11;99854.92;1784526;80;21027;-76
2021/08/01 05:52:40;;;;;;;3.00;2.30;;;;;;;20.08;54.88;99858.75;1785555;80;21510;-76
2021/08/01 05:55:06;;;;;;;4.75;2.45;;;;;;;19.84;54.83;99853.19;1786092;80;21460;-76
2021/08/01 05:57:32;;;;;;;4.42;2.15;;;;;;;19.70;54.75;99856.70;1784097;80;21558;-76
2021/08/01 05:59:58;;;;;;;4.17;2.80;;;;;;;19.59;54.65;99856.77;1784411;80;21452;-76
2021/08/01 06:02:24;;;;;;;6.00;2.87;;;;;;;19.42;54.66;99858.88;1787413;80;21027;-75
2021/08/01 06:04:51;;;;;;;6.53;3.58;;;;;;;19.31;54.60;99858.38;1784410;80;21134;-76
2021/08/01 06:07:17;;;;;;;5.25;2.33;;;;;;;19.18;54.65;99855.92;1784295;80;21003;-76
2021/08/01 06:09:46;;;;;;;6.12;2.42;;;;;;;19.12;54.72;99856.06;1785466;80;21503;-76
2021/08/01 06:12:11;;;;;;;5.47;2.17;;;;;;;19.07;54.77;99858.12;1788635;80;20983;-76
2021/08/01 06:14:37;;;;;;;5.37;2.72;;;;;;;18.96;54.88;99862.48;1784457;80;21045;-76
2021/08/01 06:17:03;;;;;;;7.00;3.12;;;;;;;18.83;54.99;99859.22;1784500;80;21127;-76
2021/08/01 06:19:29;;;;;;;6.17;2.52;;;;;;;18.85;55.10;99851.72;1784220;80;21023;-76
2021/08/01 06:21:55;;;;;;;4.92;2.30;;;;;;;18.87;55.18;99846.88;1784529;80;21488;-76
2021/08/01 06:24:21;;;;;;;5.20;2.83;;;;;;;18.92;55.23;99842.95;1784320;80;21420;-76
2021/08/01 06:26:47;;;;;;;5.62;2.60;;;;;;;18.95;55.30;99839.77;1784625;80;20988;-76
2021/08/01 06:29:14;;;;;;;8.18;2.37;;;;;;;18.99;55.35;99832.84;1784239;79;21025;-76
2021/08/01 06:31:39;;;;;;;3.50;2.10;;;;;;;19.04;55.44;99829.39;1787443;80;20994;-76
2021/08/01 06:34:05;;;;;;;6.90;2.65;;;;;;;19.04;55.53;99819.94;1787575;80;20999;-76
2021/08/01 06:36:32;;;;;;;5.22;2.58;;;;;;;19.11;55.54;99828.20;1785414;80;21463;-76
2021/08/01 06:38:58;;;;;;;5.47;2.98;;;;;;;19.19;55.65;99831.89;1790054;80;21026;-76
2021/08/01 06:41:24;;;;;;;4.37;2.58;;;;;;;19.27;55.73;99830.17;1789703;80;21121;-75
2021/08/01 06:43:50;;;;;;;7.28;2.42;;;;;;;19.28;55.78;99829.09;1788393;80;21042;-76
2021/08/01 06:46:16;;;;;;;4.12;2.50;;;;;;;19.24;55.85;99829.30;1788018;80;20972;-75
2021/08/01 06:48:42;;;;;;;6.37;2.62;;;;;;;19.24;55.92;99825.25;1786992;80;21043;-76
2021/08/01 06:51:08;;;;;;;2.58;2.10;;;;;;;19.32;55.99;99826.72;1784270;80;21467;-76
2021/08/01 06:53:34;;;;;;;5.62;2.45;;;;;;;19.38;56.01;99829.31;1784504;80;21467;-76
2021/08/01 06:56:00;;;;;;;3.62;2.27;;;;;;;19.37;55.99;99837.12;1785650;80;20959;-76
2021/08/01 06:58:26;;;;;;;4.53;2.12;;;;;;;19.40;56.00;99833.94;1789654;80;21023;-76
2021/08/01 07:00:53;;;;;;;5.53;2.40;;;;;;;19.48;56.00;99840.88;1788862;80;21031;-76
2021/08/01 07:03:20;;;;;;;4.80;2.35;;;;;;;19.57;56.04;99842.66;1784343;80;21124;-76
2021/08/01 07:05:46;;;;;;;5.22;2.45;;;;;;;19.62;56.04;99850.88;1784644;80;21087;-76
2021/08/01 07:08:12;;;;;;;5.10;2.55;;;;;;;19.70;56.06;99862.67;1784106;80;20998;-76
2021/08/01 07:10:38;;;;;;;2.83;2.50;;;;;;;19.75;56.11;99861.39;1787306;80;21023;-76
2021/08/01 07:13:05;;;;;;;4.85;2.37;;;;;;;19.75;56.05;99860.05;1784169;80;21122;-75
2021/08/01 07:15:31;;;;;;;11.05;2.83;;;;;;;19.73;56.03;99854.06;1784310;80;21452;-75
2021/08/01 07:17:58;;;;;;;4.03;2.37;;;;;;;19.77;56.00;99853.88;1786928;79;21608;-75
2021/08/01 07:20:24;;;;;;;6.97;2.35;;;;;;;19.77;55.95;99856.58;1789519;80;20986;-76
2021/08/01 07:22:51;;;;;;;4.33;2.85;;;;;;;19.74;55.97;99863.80;1789191;80;21060;-76
2021/08/01 07:25:17;;;;;;;6.22;2.55;;;;;;;19.76;55.92;99873.88;1789914;80;21498;-76
2021/08/01 07:27:43;;;;;;;9.10;2.17;;;;;;;19.79;55.90;99878.80;1790003;80;21053;-76
2021/08/01 07:30:10;;;;;;;2.50;2.30;;;;;;;19.81;55.84;99867.18;1789886;78;21039;-76
2021/08/01 07:32:36;;;;;;;2.50;2.30;;;;;;;19.84;55.84;99864.81;1789792;80;21077;-76
2021/08/01 07:35:03;;;;;;;3.33;2.33;;;;;;;19.91;55.77;99872.25;1789908;78;20977;-76
2021/08/01 07:37:29;;;;;;;8.10;2.50;;;;;;;19.93;55.74;99874.72;1789969;80;20950;-76
2021/08/01 07:39:55;;;;;;;7.53;2.45;;;;;;;19.91;55.73;99875.52;1789985;80;21029;-76
2021/08/01 07:42:21;;;;;;;6.00;2.58;;;;;;;19.94;55.72;99870.96;1789885;80;21006;-76
2021/08/01 07:45:01;;;;;;;3.52;2.60;;;;;;;19.97;55.76;99870.47;1789897;80;21505;-76
2021/08/01 07:47:20;;;;;;;4.87;3.05;;;;;;;20.00;55.82;99869.98;1786429;80;21025;-76
2021/08/01 07:49:48;;;;;;;6.28;2.62;;;;;;;20.06;55.82;99862.22;1790044;80;21510;-76
2021/08/01 07:52:14;;;;;;;3.17;2.45;;;;;;;20.09;55.88;99876.62;1789995;80;20974;-76
2021/08/01 07:54:40;;;;;;;7.97;2.75;;;;;;;20.08;55.88;99869.59;1789777;80;21142;-76
2021/08/01 07:57:07;;;;;;;3.00;2.47;;;;;;;20.09;55.86;99871.20;1785651;80;21416;-76
2021/08/01 07:59:33;;;;;;;4.67;2.55;;;;;;;20.11;55.86;99869.09;1783059;80;21436;-76
2021/08/01 08:01:59;;;;;;;5.28;2.22;;;;;;;20.15;55.87;99856.71;1788720;80;21044;-76
2021/08/01 08:04:25;;;;;;;3.17;2.22;;;;;;;20.16;55.85;99855.63;1780339;80;21044;-76
2021/08/01 08:06:51;;;;;;;18.07;4.53;;;;;;;20.17;55.91;99849.15;1780193;80;21136;-76
2021/08/01 08:09:21;;;;;;;6.15;2.77;;;;;;;20.23;55.91;99854.92;1789803;80;21034;-76
2021/08/01 08:11:47;;;;;;;6.53;2.22;;;;;;;20.27;55.93;99841.22;1790068;80;21076;-75
2021/08/01 08:14:13;;;;;;;5.45;2.72;;;;;;;20.33;55.97;99837.55;1794804;80;21499;-76
2021/08/01 08:16:39;;;;;;;9.90;3.72;;;;;;;20.36;55.95;99834.34;1795540;80;21009;-75
2021/08/01 08:19:05;;;;;;;12.10;3.42;;;;;;;20.31;55.92;99831.53;1795767;80;21057;-76
2021/08/01 08:21:31;;;;;;;17.27;3.87;;;;;;;20.37;56.00;99827.83;1795004;79;21082;-75
2021/08/01 08:23:57;;;;;;;5.12;2.90;;;;;;;20.48;56.04;99818.53;1796017;79;21077;-76
2021/08/01 08:26:23;;;;;;;8.70;4.33;;;;;;;20.62;55.99;99820.61;1795844;79;20982;-76
2021/08/01 08:28:49;;;;;;;9.90;4.22;;;;;;;20.73;55.93;99822.93;1796367;79;21001;-75
2021/08/01 08:31:15;;;;;;;8.85;2.92;;;;;;;20.78;55.85;99817.59;1795816;78;21787;-76
2021/08/01 08:33:42;;;;;;;8.78;2.20;;;;;;;20.77;55.74;99810.52;1795940;79;20982;-76
2021/08/01 08:36:08;;;;;;;5.28;2.12;;;;;;;20.69;55.69;99812.34;1796300;79;20993;-75
2021/08/01 08:38:34;;;;;;;6.37;2.10;;;;;;;20.61;55.67;99815.46;1795484;78;21065;-76
2021/08/01 08:41:00;;;;;;;3.33;2.40;;;;;;;20.57;55.71;99812.96;1796338;79;21009;-76
2021/08/01 08:43:26;;;;;;;6.92;2.50;;;;;;;20.61;55.67;99808.16;1796031;79;21483;-76
2021/08/01 08:45:53;;;;;;;4.35;1.95;;;;;;;20.59;55.63;99810.80;1795886;79;21053;-76
2021/08/01 08:48:19;;;;;;;10.40;3.70;;;;;;;20.59;55.63;99810.80;1796331;79;20990;-76
2021/08/01 08:50:49;;;;;;;13.13;2.92;;;;;;;20.59;55.70;99810.28;1796273;79;21041;-75
2021/08/01 08:53:15;;;;;;;;;;;;;;;20.53;55.71;99811.81;1798893;79;20994;-76
2021/08/01 08:55:41;;;;;;;5.92;2.65;;;;;;;20.49;55.64;99810.66;1769250;79;21113;-75
2021/08/01 08:58:07;;;;;;;9.35;2.75;;;;;;;20.41;55.73;99814.08;1796390;79;21065;-75
2021/08/01 09:00:33;;;;;;;4.87;2.85;;;;;;;20.39;55.71;99808.63;1796069;79;21042;-75
2021/08/01 09:02:59;;;;;;;6.70;2.92;;;;;;;20.35;55.74;99820.50;1796103;79;21781;-75
2021/08/01 09:05:25;;;;;;;5.72;2.50;;;;;;;20.33;55.85;99824.00;1796049;79;21501;-75
2021/08/01 09:07:52;;;;;;;2.85;2.20;;;;;;;20.33;55.92;99822.65;1796362;79;21208;-75
2021/08/01 09:10:18;;;;;;;4.72;2.40;;;;;;;20.24;56.01;99825.44;1795964;79;20983;-75
2021/08/01 09:12:47;;;;;;;3.77;2.65;;;;;;;20.16;56.08;99831.25;1792219;79;21042;-75
2021/08/01 09:15:18;;;;;;;20.57;4.03;;;;;;;20.17;56.24;99831.55;1784605;80;21042;-75
2021/08/01 09:17:45;;;;;;;8.23;2.83;;;;;;;20.24;56.29;99822.73;1784463;80;21062;-75
2021/08/01 09:20:22;;;;;;;5.60;2.58;;;;;;;20.28;56.33;99830.68;1784636;80;21555;-75
2021/08/01 09:23:08;;;;;;;5.25;2.45;;;;;;;20.25;56.45;99831.14;1784377;80;20980;-75
2021/08/01 09:25:39;;;;;;;8.40;2.60;;;;;;;20.21;56.56;99829.17;1784600;80;21427;-75
2021/08/01 09:28:18;;;;;;;3.30;2.20;;;;;;;20.20;56.64;99834.28;1784542;80;21467;-75
2021/08/01 09:30:56;;;;;;;6.92;2.55;;;;;;;20.17;56.68;99826.13;1784419;79;21003;-76
2021/08/01 09:33:38;;;;;;;12.20;2.45;;;;;;;20.08;56.70;99828.98;1784377;80;21102;-75
2021/08/01 09:36:16;;;;;;;4.42;2.87;;;;;;;20.05;56.81;99824.05;1784363;80;21023;-75
2021/08/01 09:38:49;;;;;;;25.73;3.03;;;;;;;20.06;56.88;99822.97;1784430;80;21027;-75
2021/08/01 09:41:26;;;;;;;7.25;2.50;;;;;;;20.10;56.98;99825.47;1784136;80;21062;-75
2021/08/01 09:44:00;;;;;;;4.60;2.37;;;;;;;20.07;57.04;99822.44;1782141;80;20975;-75
2021/08/01 09:46:46;;;;;;;4.83;2.12;;;;;;;20.03;57.09;99823.98;1784606;80;21559;-75
2021/08/01 09:49:17;;;;;;;5.00;2.33;;;;;;;19.95;57.22;99829.27;1784394;80;20999;-75
2021/08/01 09:51:52;;;;;;;4.28;2.35;;;;;;;19.86;57.28;99838.88;1784470;80;21468;-75
2021/08/01 09:54:20;;;;;;;7.42;2.55;;;;;;;19.79;57.46;99841.73;1784387;80;21542;-75
2021/08/01 09:57:00;;;;;;;8.70;2.35;;;;;;;19.72;57.72;99845.66;1784510;80;20995;-75
2021/08/01 09:59:31;;;;;;;5.03;2.20;;;;;;;19.65;57.97;99855.80;1784317;80;21081;-75
2021/08/01 10:02:03;;;;;;;5.03;2.77;;;;;;;19.53;58.18;99856.39;1784120;80;20994;-75
2021/08/01 10:04:40;;;;;;;3.95;2.50;;;;;;;19.42;58.40;99865.64;1716918;78;20956;-75
2021/08/01 10:07:13;;;;;;;5.42;2.52;;;;;;;19.32;58.71;99862.70;1678406;85;21058;-75
2021/08/01 10:09:45;;;;;;;3.83;2.30;;;;;;;19.21;58.97;99859.50;1690275;84;21061;-75
2021/08/01 10:12:12;;;;;;;4.72;2.52;;;;;;;19.12;59.25;99851.48;1675290;84;21244;-75
2021/08/01 10:14:38;;;;;;;3.37;2.50;;;;;;;19.14;59.52;99849.91;1675320;85;21031;-75
2021/08/01 10:17:05;;;;;;;3.50;2.75;;;;;;;19.14;59.76;99845.30;1675266;84;21059;-75
2021/08/01 10:19:32;;;;;;;6.30;2.47;;;;;;;19.08;60.05;99840.84;1686277;84;21053;-75
2021/08/01 10:22:03;;;;;;;5.37;2.62;;;;;;;19.02;60.30;99845.86;1679547;84;21116;-77
2021/08/01 10:24:44;;;;;;;5.72;2.80;;;;;;;19.02;60.56;99845.86;1689188;84;21170;-77
2021/08/01 10:27:10;;;;;;;6.35;3.33;;;;;;;19.03;60.82;99845.34;1682789;83;21529;-77
2021/08/01 10:29:52;;;;;;;8.45;4.20;;;;;;;18.99;61.13;99849.05;1673317;85;21073;-76
2021/08/01 10:32:24;;;;;;;8.23;4.20;;;;;;;18.90;61.31;99851.81;1670489;85;21692;-76
2021/08/01 10:35:06;;;;;;;8.30;4.70;;;;;;;18.79;61.61;99845.89;1688701;83;21405;-77
2021/08/01 10:37:55;;;;;;;5.87;3.12;;;;;;;18.69;61.89;99847.02;1673669;85;21571;-77
2021/08/01 10:40:25;;;;;;;5.60;2.95;;;;;;;18.64;62.19;99848.27;1674171;85;21598;-76
2021/08/01 10:42:55;;;;;;;5.83;3.55;;;;;;;18.60;62.44;99849.27;1701161;83;21094;-77
2021/08/01 10:45:21;;;;;;;;;;;;;;;18.56;62.67;99856.72;1673085;85;21050;-77
2021/08/01 10:47:51;;;;;;;3.20;2.90;;;;;;;18.55;62.91;99861.29;1684361;84;20951;-76
2021/08/01 10:50:22;;;;;;;4.25;3.45;;;;;;;18.55;63.14;99852.36;1693153;84;21740;-77
2021/08/01 10:52:48;;;;;;;6.47;3.75;;;;;;;18.54;63.30;99861.02;1649753;85;21546;-77
2021/08/01 10:55:22;;;;;;;6.65;3.70;;;;;;;18.58;63.49;99854.62;1676440;84;21086;-77
2021/08/01 10:58:11;;;;;;;6.90;3.60;;;;;;;18.62;63.70;99854.41;1660449;86;21514;-76
2021/08/01 11:01:02;;;;;;;4.15;3.25;;;;;;;18.67;63.89;99847.27;1667415;84;21052;-77
2021/08/01 11:03:29;;;;;;;5.35;3.60;;;;;;;18.68;64.12;99852.14;1682579;85;21110;-78
2021/08/01 11:05:56;;;;;;;4.40;3.60;;;;;;;18.64;64.29;99852.32;1660004;85;21514;-77
2021/08/01 11:08:22;;;;;;;8.15;4.30;;;;;;;18.61;64.48;99848.74;1649796;86;21053;-78
2021/08/01 11:11:09;;;;;;;6.40;3.55;;;;;;;18.62;64.71;99847.66;1649116;87;21071;-77
2021/08/01 11:13:48;;;;;;;4.25;3.80;;;;;;;18.55;64.90;99861.81;1630762;87;21118;-77
2021/08/01 11:16:43;;;;;;;4.80;4.15;;;;;;;18.50;65.15;99863.03;1648918;87;21160;-78
2021/08/01 11:19:34;;;;;;;6.53;4.40;;;;;;;18.42;65.33;99864.20;1655175;86;21524;-78
2021/08/01 11:22:00;;;;;;;7.55;4.60;;;;;;;18.34;65.58;99878.03;1666667;86;21053;-78
2021/08/01 11:24:27;;;;;;;12.98;5.12;;;;;;;18.26;65.83;99875.70;1668287;85;21107;-75
2021/08/01 11:27:08;;;;;;;9.43;5.17;;;;;;;18.23;66.04;99878.83;1663416;85;21623;-76
2021/08/01 11:30:02;;;;;;;6.10;3.02;;;;;;;18.16;66.27;99877.59;1667043;85;21315;-76
2021/08/01 11:32:31;;;;;;;4.85;3.27;;;;;;;18.07;66.49;99875.47;1651136;86;21084;-75
2021/08/01 11:35:15;;;;;;;8.98;3.00;;;;;;;17.94;66.63;99875.16;1655664;86;21552;-77
2021/08/01 11:37:41;;;;;;;4.83;3.37;;;;;;;17.85;66.75;99876.52;1661688;85;21081;-73
2021/08/01 11:40:08;;;;;;;4.80;3.42;;;;;;;17.81;66.90;99887.46;1653322;86;21415;-72